Terminal Aerodrome Forecast
Issued by NWS Jackson, MS

Home | Current Version | Previous Version | Text Only | Print | Product List | Glossary On
Versions: 1 2 3 4 5 6 7 8 9 10 11 12
267
FTUS44 KJAN 222348
TAFHBG
TAF
KHBG 222348Z 2300/2324 20003KT P6SM SKC
     FM230100 24004KT P6SM FEW250
     FM231900 21007KT P6SM VCTS SCT050CB=

USA.gov is the U.S. government's official web portal to all federal, state and local government web resources and services.